createdAt,value
2022-08-26T00:02:23.469Z,1002.08
2022-08-26T00:04:56.465Z,1002.07
2022-08-26T00:07:29.460Z,1002.08
2022-08-26T00:10:02.490Z,1002.08
2022-08-26T00:12:37.262Z,1002.09
2022-08-26T00:15:08.438Z,1002.10
2022-08-26T00:17:41.471Z,1002.11
2022-08-26T00:20:14.442Z,1002.12
2022-08-26T00:22:47.517Z,1002.14
2022-08-26T00:25:20.444Z,1002.15
2022-08-26T00:27:53.466Z,1002.15
2022-08-26T00:30:26.693Z,1002.16
2022-08-26T00:32:59.536Z,1002.14
2022-08-26T00:35:33.530Z,1002.14
2022-08-26T00:38:05.496Z,1002.14
2022-08-26T00:40:38.186Z,1002.15
2022-08-26T00:43:11.462Z,1002.15
2022-08-26T00:45:44.552Z,1002.15
2022-08-26T00:48:17.488Z,1002.13
2022-08-26T00:50:50.545Z,1002.12
2022-08-26T00:53:24.064Z,1002.10
2022-08-26T00:55:56.468Z,1002.08
2022-08-26T00:58:29.514Z,1002.08
2022-08-26T01:01:02.571Z,1002.08
2022-08-26T01:03:35.537Z,1002.08
2022-08-26T01:06:11.474Z,1002.08
2022-08-26T01:08:41.570Z,1002.06
2022-08-26T01:11:14.538Z,1002.07
2022-08-26T01:13:47.554Z,1002.06
2022-08-26T01:16:20.594Z,1002.07
2022-08-26T01:18:53.563Z,1002.08
2022-08-26T01:21:26.497Z,1002.09
2022-08-26T01:24:03.418Z,1002.08
2022-08-26T01:26:36.556Z,1002.07
2022-08-26T01:29:09.606Z,1002.06
2022-08-26T01:31:42.738Z,1002.05
2022-08-26T01:34:15.530Z,1002.07
2022-08-26T01:36:51.529Z,1002.09
2022-08-26T01:39:21.537Z,1002.09
2022-08-26T01:41:54.616Z,1002.09
2022-08-26T01:44:27.597Z,1002.11
2022-08-26T01:47:00.612Z,1002.14
2022-08-26T01:49:33.605Z,1002.15
2022-08-26T01:52:06.585Z,1002.16
2022-08-26T01:54:39.616Z,1002.16
2022-08-26T01:57:12.643Z,1002.17
2022-08-26T01:59:45.573Z,1002.18
2022-08-26T02:02:18.641Z,1002.20
2022-08-26T02:04:51.717Z,1002.22
2022-08-26T02:07:26.712Z,1002.22
2022-08-26T02:09:57.646Z,1002.24
2022-08-26T02:12:30.581Z,1002.23
2022-08-26T02:15:06.575Z,1002.22
2022-08-26T02:17:39.629Z,1002.22
2022-08-26T02:20:13.350Z,1002.20
2022-08-26T02:22:45.597Z,1002.19
2022-08-26T02:25:18.617Z,1002.18
2022-08-26T02:27:51.708Z,1002.17
2022-08-26T02:30:24.632Z,1002.16
2022-08-26T02:33:03.696Z,1002.17
2022-08-26T02:35:36.681Z,1002.16
2022-08-26T02:38:09.882Z,1002.17
2022-08-26T02:40:48.665Z,1002.17
2022-08-26T02:43:31.441Z,1002.18
2022-08-26T02:45:54.743Z,1002.18
2022-08-26T02:48:27.607Z,1002.16
2022-08-26T02:51:00.636Z,1002.16
2022-08-26T02:53:35.570Z,1002.16
2022-08-26T02:56:06.731Z,1002.17
2022-08-26T02:58:39.769Z,1002.18
2022-08-26T03:01:12.738Z,1002.18
2022-08-26T03:03:45.737Z,1002.20
2022-08-26T03:06:18.639Z,1002.21
2022-08-26T03:08:51.730Z,1002.22
2022-08-26T03:11:26.724Z,1002.23
2022-08-26T03:13:57.754Z,1002.23
2022-08-26T03:16:32.258Z,1002.21
2022-08-26T03:19:03.754Z,1002.22
2022-08-26T03:21:36.739Z,1002.22
2022-08-26T03:24:09.741Z,1002.22
2022-08-26T03:26:52.822Z,1002.24
2022-08-26T03:29:15.667Z,1002.23
2022-08-26T03:31:48.777Z,1002.24
2022-08-26T03:34:21.704Z,1002.26
2022-08-26T03:36:54.758Z,1002.25
2022-08-26T03:39:27.865Z,1002.25
2022-08-26T03:42:00.768Z,1002.26
2022-08-26T03:44:33.784Z,1002.24
2022-08-26T03:47:06.737Z,1002.22
2022-08-26T03:49:39.809Z,1002.21
2022-08-26T03:52:12.701Z,1002.20
2022-08-26T03:54:45.806Z,1002.20
2022-08-26T03:57:18.700Z,1002.20
2022-08-26T03:59:51.819Z,1002.21
2022-08-26T04:02:24.768Z,1002.21
2022-08-26T04:04:57.723Z,1002.21
2022-08-26T04:07:32.085Z,1002.21
2022-08-26T04:10:03.758Z,1002.20
2022-08-26T04:12:36.820Z,1002.20
2022-08-26T04:15:09.786Z,1002.20
2022-08-26T04:17:42.764Z,1002.21
2022-08-26T04:20:16.250Z,1002.20
2022-08-26T04:22:48.849Z,1002.21
2022-08-26T04:25:21.804Z,1002.23
2022-08-26T04:27:57.773Z,1002.24
2022-08-26T04:30:30.508Z,1002.24
2022-08-26T04:33:03.641Z,1002.23
2022-08-26T04:35:36.640Z,1002.23
2022-08-26T04:38:09.618Z,1002.23
2022-08-26T04:40:42.622Z,1002.25
2022-08-26T04:43:15.536Z,1002.25
2022-08-26T04:45:48.615Z,1002.25
2022-08-26T04:48:21.628Z,1002.24
2022-08-26T04:50:54.796Z,1002.23
2022-08-26T04:53:27.684Z,1002.22
2022-08-26T04:56:00.649Z,1002.23
2022-08-26T04:58:33.805Z,1002.23
2022-08-26T05:01:06.803Z,1002.25
2022-08-26T05:03:39.826Z,1002.26
2022-08-26T05:06:12.819Z,1002.29
2022-08-26T05:08:45.920Z,1002.30
2022-08-26T05:11:18.564Z,1002.33
2022-08-26T05:13:51.918Z,1002.36
2022-08-26T05:16:24.936Z,1002.37
2022-08-26T05:18:57.888Z,1002.40
2022-08-26T05:21:30.818Z,1002.43
2022-08-26T05:24:03.686Z,1002.45
2022-08-26T05:26:36.723Z,1002.46
2022-08-26T05:29:09.577Z,1002.47
2022-08-26T05:31:42.931Z,1002.48
2022-08-26T05:34:15.748Z,1002.49
2022-08-26T05:36:48.654Z,1002.50
2022-08-26T05:39:21.981Z,1002.51
2022-08-26T05:41:54.575Z,1002.50
2022-08-26T05:44:27.689Z,1002.49
2022-08-26T05:47:00.736Z,1002.50
2022-08-26T05:49:33.724Z,1002.51
2022-08-26T05:52:06.924Z,1002.55
2022-08-26T05:54:39.881Z,1002.61
2022-08-26T05:57:12.969Z,1002.66
2022-08-26T05:59:45.885Z,1002.69
2022-08-26T06:02:18.648Z,1002.73
2022-08-26T06:04:51.917Z,1002.74
2022-08-26T06:07:24.900Z,1002.73
2022-08-26T06:10:15.365Z,1002.72
2022-08-26T06:12:30.927Z,1002.71
2022-08-26T06:15:04.228Z,1002.71
2022-08-26T06:17:36.897Z,1002.72
2022-08-26T06:20:10.015Z,1002.73
2022-08-26T06:22:45.936Z,1002.77
2022-08-26T06:25:25.005Z,1002.80
2022-08-26T06:27:58.201Z,1002.84
2022-08-26T06:30:31.005Z,1002.84
2022-08-26T06:33:03.976Z,1002.86
2022-08-26T06:35:37.058Z,1002.87
2022-08-26T06:38:09.854Z,1002.89
2022-08-26T06:40:42.838Z,1002.90
2022-08-26T06:43:15.752Z,1002.92
2022-08-26T06:45:48.699Z,1002.93
2022-08-26T06:48:21.953Z,1002.95
2022-08-26T06:50:54.958Z,1002.94
2022-08-26T06:53:27.726Z,1002.95
2022-08-26T06:56:00.795Z,1002.95
2022-08-26T06:58:33.789Z,1002.93
2022-08-26T07:01:11.248Z,1002.92
2022-08-26T07:03:40.001Z,1002.93
2022-08-26T07:06:12.890Z,1002.95
2022-08-26T07:08:45.819Z,1002.97
2022-08-26T07:11:18.697Z,1002.98
2022-08-26T07:13:51.746Z,1002.99
2022-08-26T07:16:24.736Z,1003.00
2022-08-26T07:18:57.895Z,1003.01
2022-08-26T07:21:30.844Z,1003.01
2022-08-26T07:24:03.757Z,1003.02
2022-08-26T07:26:36.920Z,1003.03
2022-08-26T07:29:11.844Z,1003.04
2022-08-26T07:31:44.881Z,1003.04
2022-08-26T07:34:17.891Z,1003.03
2022-08-26T07:36:50.893Z,1003.03
2022-08-26T07:39:23.769Z,1003.03
2022-08-26T07:41:56.746Z,1003.04
2022-08-26T07:44:29.921Z,1003.04
2022-08-26T07:47:03.036Z,1003.04
2022-08-26T07:49:36.155Z,1003.04
2022-08-26T07:52:08.843Z,1003.04
2022-08-26T07:54:41.941Z,1003.04
2022-08-26T07:57:29.261Z,1003.05
2022-08-26T08:00:02.818Z,1003.06
2022-08-26T08:02:35.831Z,1003.08
2022-08-26T08:05:08.952Z,1003.10
2022-08-26T08:07:45.266Z,1003.12
2022-08-26T08:10:14.908Z,1003.13
2022-08-26T08:12:47.937Z,1003.14
2022-08-26T08:15:20.819Z,1003.13
2022-08-26T08:17:54.835Z,1003.13
2022-08-26T08:20:26.813Z,1003.13
2022-08-26T08:22:59.926Z,1003.13
2022-08-26T08:25:32.962Z,1003.11
2022-08-26T08:28:05.991Z,1003.11
2022-08-26T08:30:39.233Z,1003.13
2022-08-26T08:33:12.161Z,1003.12
2022-08-26T08:35:44.905Z,1003.11
2022-08-26T08:38:17.863Z,1003.12
2022-08-26T08:40:50.957Z,1003.11
2022-08-26T08:43:24.145Z,1003.10
2022-08-26T08:45:57.029Z,1003.08
2022-08-26T08:48:29.899Z,1003.09
2022-08-26T08:51:02.875Z,1003.08
2022-08-26T08:53:36.137Z,1003.09
2022-08-26T08:56:09.227Z,1003.10
2022-08-26T08:58:42.143Z,1003.13
2022-08-26T09:01:15.116Z,1003.12
2022-08-26T09:03:48.134Z,1003.12
2022-08-26T09:06:20.862Z,1003.11
2022-08-26T09:08:55.873Z,1003.11
2022-08-26T09:11:29.014Z,1003.10
2022-08-26T09:14:01.890Z,1003.10
2022-08-26T09:16:34.957Z,1003.09
2022-08-26T09:19:07.887Z,1003.08
2022-08-26T09:21:41.125Z,1003.09
2022-08-26T09:24:14.265Z,1003.10
2022-08-26T09:26:47.442Z,1003.10
2022-08-26T09:29:23.733Z,1003.08
2022-08-26T09:31:56.995Z,1003.06
2022-08-26T09:34:33.270Z,1003.03
2022-08-26T09:37:05.946Z,1003.02
2022-08-26T09:39:39.013Z,1003.01
2022-08-26T09:42:11.928Z,1002.99
2022-08-26T09:44:45.086Z,1002.98
2022-08-26T09:47:18.096Z,1002.99
2022-08-26T09:49:51.031Z,1002.99
2022-08-26T09:52:23.928Z,1003.00
2022-08-26T09:54:57.109Z,1002.99
2022-08-26T09:57:30.234Z,1002.98
2022-08-26T10:00:16.912Z,1002.95
2022-08-26T10:02:51.109Z,1002.92
2022-08-26T10:05:23.363Z,1002.87
2022-08-26T10:07:55.948Z,1002.83
2022-08-26T10:10:29.313Z,1002.79
2022-08-26T10:13:02.040Z,1002.73
2022-08-26T10:15:34.986Z,1002.69
2022-08-26T10:18:08.431Z,1002.62
2022-08-26T10:20:41.138Z,1002.56
2022-08-26T10:23:14.008Z,1002.52
2022-08-26T10:25:47.202Z,1002.48
2022-08-26T10:28:19.992Z,1002.45
2022-08-26T10:30:53.140Z,1002.42
2022-08-26T10:33:26.119Z,1002.38
2022-08-26T10:35:59.040Z,1002.35
2022-08-26T10:38:32.000Z,1002.33
2022-08-26T10:41:10.448Z,1002.32
2022-08-26T10:43:51.927Z,1002.31
2022-08-26T10:46:27.309Z,1002.29
2022-08-26T10:48:59.833Z,1002.29
2022-08-26T10:51:31.110Z,1002.29
2022-08-26T10:54:04.163Z,1002.30
2022-08-26T10:56:37.167Z,1002.30
2022-08-26T10:59:12.415Z,1002.30
2022-08-26T11:01:43.502Z,1002.32
2022-08-26T11:04:16.455Z,1002.31
2022-08-26T11:06:49.313Z,1002.29
2022-08-26T11:09:22.090Z,1002.29
2022-08-26T11:11:55.140Z,1002.28
2022-08-26T11:14:30.302Z,1002.24
2022-08-26T11:17:01.274Z,1002.20
2022-08-26T11:19:50.868Z,1002.15
2022-08-26T11:22:07.079Z,1002.12
2022-08-26T11:24:40.170Z,1002.11
2022-08-26T11:27:13.096Z,1002.09
2022-08-26T11:29:46.732Z,1002.09
2022-08-26T11:32:20.114Z,1002.08
2022-08-26T11:34:53.375Z,1002.07
2022-08-26T11:37:26.106Z,1002.05
2022-08-26T11:39:59.295Z,1002.05
2022-08-26T11:42:32.262Z,1002.02
2022-08-26T11:45:05.555Z,1001.99
2022-08-26T11:47:38.168Z,1001.96
2022-08-26T11:50:11.269Z,1001.95
2022-08-26T11:52:44.214Z,1001.93
2022-08-26T11:55:17.118Z,1001.89
2022-08-26T11:57:50.128Z,1001.87
2022-08-26T12:00:23.466Z,1001.84
2022-08-26T12:02:56.251Z,1001.83
2022-08-26T12:05:30.921Z,1001.79
2022-08-26T12:08:02.326Z,1001.76
2022-08-26T12:10:35.206Z,1001.74
2022-08-26T12:13:11.275Z,1001.72
2022-08-26T12:15:44.200Z,1001.70
2022-08-26T12:18:17.150Z,1001.69
2022-08-26T12:20:50.155Z,1001.69
2022-08-26T12:23:37.106Z,1001.69
2022-08-26T12:26:10.407Z,1001.68
2022-08-26T12:28:43.242Z,1001.64
2022-08-26T12:31:16.176Z,1001.59
2022-08-26T12:33:49.453Z,1001.54
2022-08-26T12:36:22.420Z,1001.50
2022-08-26T12:38:58.124Z,1001.47
2022-08-26T12:41:28.198Z,1001.45
2022-08-26T12:44:01.355Z,1001.44
2022-08-26T12:46:34.289Z,1001.42
2022-08-26T12:49:07.263Z,1001.39
2022-08-26T12:51:40.189Z,1001.36
2022-08-26T12:54:13.342Z,1001.33
2022-08-26T12:56:46.270Z,1001.28
2022-08-26T12:59:19.199Z,1001.22
2022-08-26T13:01:52.520Z,1001.19
2022-08-26T13:04:25.211Z,1001.15
2022-08-26T13:06:58.348Z,1001.12
2022-08-26T13:09:31.234Z,1001.09
2022-08-26T13:12:04.344Z,1001.04
2022-08-26T13:14:37.243Z,1001.01
2022-08-26T13:17:10.427Z,1000.96
2022-08-26T13:19:43.362Z,1000.92
2022-08-26T13:22:16.285Z,1000.88
2022-08-26T13:24:49.245Z,1000.83
2022-08-26T13:27:22.342Z,1000.77
2022-08-26T13:29:55.389Z,1000.72
2022-08-26T13:32:28.316Z,1000.66
2022-08-26T13:35:03.933Z,1000.64
2022-08-26T13:37:35.542Z,1000.60
2022-08-26T13:40:07.442Z,1000.58
2022-08-26T13:42:42.998Z,1000.55
2022-08-26T13:45:13.299Z,1000.54
2022-08-26T13:47:46.261Z,1000.52
2022-08-26T13:50:19.345Z,1000.51
2022-08-26T13:52:52.426Z,1000.50
2022-08-26T13:55:25.320Z,1000.49
2022-08-26T13:57:58.539Z,1000.49
2022-08-26T14:00:31.508Z,1000.48
2022-08-26T14:03:04.485Z,1000.49
2022-08-26T14:05:37.532Z,1000.49
2022-08-26T14:08:10.626Z,1000.52
2022-08-26T14:10:43.481Z,1000.53
2022-08-26T14:13:16.319Z,1000.54
2022-08-26T14:15:49.413Z,1000.55
2022-08-26T14:18:22.425Z,1000.55
2022-08-26T14:20:55.488Z,1000.55
2022-08-26T14:23:28.409Z,1000.55
2022-08-26T14:26:01.594Z,1000.55
2022-08-26T14:28:34.370Z,1000.54
2022-08-26T14:31:07.433Z,1000.53
2022-08-26T14:33:40.441Z,1000.51
2022-08-26T14:36:13.577Z,1000.51
2022-08-26T14:38:46.396Z,1000.50
2022-08-26T14:41:19.430Z,1000.47
2022-08-26T14:43:52.429Z,1000.46
2022-08-26T14:46:25.417Z,1000.47
2022-08-26T14:49:01.769Z,1000.45
2022-08-26T14:51:31.433Z,1000.44
2022-08-26T14:54:04.511Z,1000.42
2022-08-26T14:56:37.599Z,1000.41
2022-08-26T14:59:10.527Z,1000.39
2022-08-26T15:01:43.550Z,1000.40
2022-08-26T15:04:16.671Z,1000.39
2022-08-26T15:06:49.517Z,1000.38
2022-08-26T15:09:36.419Z,1000.39
2022-08-26T15:12:09.626Z,1000.38
2022-08-26T15:14:42.535Z,1000.39
2022-08-26T15:17:15.565Z,1000.42
2022-08-26T15:19:48.667Z,1000.45
2022-08-26T15:22:21.577Z,1000.50
2022-08-26T15:24:54.509Z,1000.54
2022-08-26T15:27:27.487Z,1000.58
2022-08-26T15:30:02.530Z,1000.61
2022-08-26T15:32:35.411Z,1000.64
2022-08-26T15:35:09.419Z,1000.65
2022-08-26T15:37:41.720Z,1000.68
2022-08-26T15:40:14.517Z,1000.71
2022-08-26T15:42:54.414Z,1000.71
2022-08-26T15:45:25.952Z,1000.73
2022-08-26T15:48:01.291Z,1000.75
2022-08-26T15:50:26.804Z,1000.76
2022-08-26T15:52:59.479Z,1000.78
2022-08-26T15:55:32.539Z,1000.78
2022-08-26T15:58:05.519Z,1000.80
2022-08-26T16:00:38.657Z,1000.83
2022-08-26T16:03:11.503Z,1000.87
2022-08-26T16:05:44.726Z,1000.91
2022-08-26T16:08:17.484Z,1000.95
2022-08-26T16:10:50.882Z,1000.99
2022-08-26T16:13:24.323Z,1001.05
2022-08-26T16:15:57.951Z,1001.09
2022-08-26T16:18:30.486Z,1001.15
2022-08-26T16:21:13.133Z,1001.20
2022-08-26T16:23:36.651Z,1001.24
2022-08-26T16:26:10.580Z,1001.26
2022-08-26T16:28:43.647Z,1001.29
2022-08-26T16:31:15.706Z,1001.35
2022-08-26T16:33:48.650Z,1001.40
2022-08-26T16:36:21.666Z,1001.45
2022-08-26T16:38:54.647Z,1001.48
2022-08-26T16:41:27.644Z,1001.53
2022-08-26T16:44:00.599Z,1001.54
2022-08-26T16:46:33.772Z,1001.56
2022-08-26T16:49:06.705Z,1001.56
2022-08-26T16:51:39.719Z,1001.56
2022-08-26T16:54:12.539Z,1001.55
2022-08-26T16:56:45.667Z,1001.56
2022-08-26T16:59:18.567Z,1001.57
2022-08-26T17:01:51.709Z,1001.59
2022-08-26T17:04:27.441Z,1001.59
2022-08-26T17:07:00.583Z,1001.60
2022-08-26T17:09:33.631Z,1001.64
2022-08-26T17:12:06.739Z,1001.67
2022-08-26T17:14:39.757Z,1001.70
2022-08-26T17:17:12.660Z,1001.73
2022-08-26T17:19:47.113Z,1001.75
2022-08-26T17:22:18.617Z,1001.76
2022-08-26T17:24:51.752Z,1001.77
2022-08-26T17:27:24.610Z,1001.79
2022-08-26T17:29:57.711Z,1001.81
2022-08-26T17:32:30.889Z,1001.81
2022-08-26T17:35:03.592Z,1001.82
2022-08-26T17:37:36.860Z,1001.83
2022-08-26T17:40:10.790Z,1001.83
2022-08-26T17:42:43.880Z,1001.82
2022-08-26T17:45:16.913Z,1001.81
2022-08-26T17:47:49.972Z,1001.82
2022-08-26T17:50:24.504Z,1001.84
2022-08-26T17:52:57.770Z,1001.86
2022-08-26T17:55:30.775Z,1001.86
2022-08-26T17:58:03.920Z,1001.87
2022-08-26T18:00:36.665Z,1001.89
2022-08-26T18:03:10.155Z,1001.91
2022-08-26T18:05:42.682Z,1001.93
2022-08-26T18:08:15.690Z,1001.95
2022-08-26T18:10:48.707Z,1001.97
2022-08-26T18:13:21.659Z,1001.97
2022-08-26T18:15:54.822Z,1001.98
2022-08-26T18:18:27.816Z,1001.99
2022-08-26T18:21:01.591Z,1002.01
2022-08-26T18:23:34.177Z,1002.02
2022-08-26T18:26:07.707Z,1002.03
2022-08-26T18:28:40.823Z,1002.04
2022-08-26T18:31:15.015Z,1002.03
2022-08-26T18:33:47.832Z,1002.04
2022-08-26T18:36:20.697Z,1002.04
2022-08-26T18:38:53.806Z,1002.03
2022-08-26T18:41:26.707Z,1002.03
2022-08-26T18:43:59.743Z,1002.03
2022-08-26T18:46:32.921Z,1002.05
2022-08-26T18:49:05.738Z,1002.06
2022-08-26T18:51:38.898Z,1002.09
2022-08-26T18:54:12.039Z,1002.13
2022-08-26T18:56:44.837Z,1002.18
2022-08-26T18:59:17.777Z,1002.23
2022-08-26T19:01:51.011Z,1002.29
2022-08-26T19:04:23.725Z,1002.35
2022-08-26T19:06:56.904Z,1002.39
2022-08-26T19:09:29.861Z,1002.41
2022-08-26T19:12:02.845Z,1002.44
2022-08-26T19:14:35.780Z,1002.46
2022-08-26T19:17:08.998Z,1002.48
2022-08-26T19:19:42.146Z,1002.50
2022-08-26T19:22:14.798Z,1002.53
2022-08-26T19:25:01.776Z,1002.55
2022-08-26T19:27:34.881Z,1002.59
2022-08-26T19:30:08.054Z,1002.61
2022-08-26T19:32:40.868Z,1002.64
2022-08-26T19:35:13.854Z,1002.67
2022-08-26T19:37:46.990Z,1002.69
2022-08-26T19:40:19.858Z,1002.70
2022-08-26T19:42:53.163Z,1002.73
2022-08-26T19:45:25.842Z,1002.73
2022-08-26T19:47:58.803Z,1002.75
2022-08-26T19:50:31.973Z,1002.77
2022-08-26T19:53:04.933Z,1002.77
2022-08-26T19:55:38.042Z,1002.77
2022-08-26T19:58:11.164Z,1002.77
2022-08-26T20:00:43.842Z,1002.79
2022-08-26T20:03:16.923Z,1002.80
2022-08-26T20:05:50.157Z,1002.84
2022-08-26T20:08:22.900Z,1002.86
2022-08-26T20:10:55.960Z,1002.89
2022-08-26T20:13:28.879Z,1002.91
2022-08-26T20:16:02.001Z,1002.93
2022-08-26T20:18:37.797Z,1002.95
2022-08-26T20:21:10.963Z,1002.97
2022-08-26T20:23:44.020Z,1002.99
2022-08-26T20:26:16.938Z,1003.01
2022-08-26T20:28:51.057Z,1003.03
2022-08-26T20:31:23.115Z,1003.04
2022-08-26T20:33:55.983Z,1003.06
2022-08-26T20:36:28.979Z,1003.08
2022-08-26T20:39:02.098Z,1003.09
2022-08-26T20:41:34.882Z,1003.10
2022-08-26T20:44:07.932Z,1003.11
2022-08-26T20:46:40.975Z,1003.11
2022-08-26T20:49:13.890Z,1003.12
2022-08-26T20:51:47.002Z,1003.12
2022-08-26T20:54:20.032Z,1003.12
2022-08-26T20:56:53.212Z,1003.11
2022-08-26T20:59:26.082Z,1003.11
2022-08-26T21:01:59.047Z,1003.10
2022-08-26T21:04:31.954Z,1003.09
2022-08-26T21:07:05.006Z,1003.06
2022-08-26T21:09:38.010Z,1003.03
2022-08-26T21:12:10.892Z,1003.00
2022-08-26T21:14:47.793Z,1002.96
2022-08-26T21:17:17.223Z,1002.94
2022-08-26T21:19:49.919Z,1002.92
2022-08-26T21:22:23.105Z,1002.90
2022-08-26T21:24:55.918Z,1002.89
2022-08-26T21:27:28.959Z,1002.89
2022-08-26T21:30:02.176Z,1002.91
2022-08-26T21:32:35.076Z,1002.93
2022-08-26T21:35:08.201Z,1002.96
2022-08-26T21:37:41.062Z,1002.99
2022-08-26T21:40:14.069Z,1003.02
2022-08-26T21:42:47.018Z,1003.08
2022-08-26T21:45:20.086Z,1003.12
2022-08-26T21:47:53.134Z,1003.15
2022-08-26T21:50:25.963Z,1003.17
2022-08-26T21:52:59.316Z,1003.20
2022-08-26T21:55:32.277Z,1003.23
2022-08-26T21:58:05.291Z,1003.25
2022-08-26T22:00:38.005Z,1003.26
2022-08-26T22:03:11.120Z,1003.28
2022-08-26T22:05:44.059Z,1003.30
2022-08-26T22:08:17.173Z,1003.33
2022-08-26T22:10:50.119Z,1003.34
2022-08-26T22:13:23.267Z,1003.37
2022-08-26T22:15:56.002Z,1003.39
2022-08-26T22:18:29.010Z,1003.42
2022-08-26T22:21:02.142Z,1003.44
2022-08-26T22:23:35.107Z,1003.45
2022-08-26T22:26:08.170Z,1003.48
2022-08-26T22:28:41.160Z,1003.50
2022-08-26T22:31:14.135Z,1003.50
2022-08-26T22:34:01.315Z,1003.51
2022-08-26T22:36:34.064Z,1003.50
2022-08-26T22:39:07.200Z,1003.48
2022-08-26T22:41:40.047Z,1003.48
2022-08-26T22:44:13.159Z,1003.46
2022-08-26T22:46:46.171Z,1003.45
2022-08-26T22:49:19.048Z,1003.45
2022-08-26T22:51:52.357Z,1003.45
2022-08-26T22:54:25.322Z,1003.47
2022-08-26T22:56:58.204Z,1003.47
2022-08-26T22:59:31.151Z,1003.47
2022-08-26T23:02:04.375Z,1003.49
2022-08-26T23:04:37.391Z,1003.51
2022-08-26T23:07:10.377Z,1003.51
2022-08-26T23:09:43.446Z,1003.53
2022-08-26T23:12:16.358Z,1003.53
2022-08-26T23:14:49.431Z,1003.55
2022-08-26T23:17:22.340Z,1003.56
2022-08-26T23:19:55.377Z,1003.56
2022-08-26T23:22:28.360Z,1003.58
2022-08-26T23:25:01.348Z,1003.60
2022-08-26T23:27:34.441Z,1003.62
2022-08-26T23:30:07.392Z,1003.64
2022-08-26T23:32:40.459Z,1003.65
2022-08-26T23:35:14.200Z,1003.66
2022-08-26T23:37:46.469Z,1003.66
2022-08-26T23:40:19.168Z,1003.65
2022-08-26T23:42:52.506Z,1003.66
2022-08-26T23:45:25.500Z,1003.65
2022-08-26T23:47:58.414Z,1003.63
2022-08-26T23:50:31.466Z,1003.62
2022-08-26T23:53:04.441Z,1003.60
2022-08-26T23:55:37.316Z,1003.57
2022-08-26T23:58:10.386Z,1003.56
